createdAt,value
2016-08-23T00:00:50.534Z,19.12
2016-08-23T00:02:02.804Z,19.15
2016-08-23T00:03:15.087Z,19.12
2016-08-23T00:04:27.370Z,19
2016-08-23T00:05:39.615Z,19.12
2016-08-23T00:06:51.173Z,19.12
2016-08-23T00:08:02.753Z,19.13
2016-08-23T00:09:14.315Z,19.12
2016-08-23T00:10:26.567Z,19.12
2016-08-23T00:11:38.847Z,19.07
2016-08-23T00:12:50.442Z,19.15
2016-08-23T00:14:02.693Z,19.06
2016-08-23T00:15:14.953Z,18.99
2016-08-23T00:16:27.220Z,18.96
2016-08-23T00:17:39.493Z,18.94
2016-08-23T00:18:51.759Z,18.99
2016-08-23T00:20:04.031Z,19.06
2016-08-23T00:21:16.309Z,19.05
2016-08-23T00:22:28.568Z,18.96
2016-08-23T00:23:40.836Z,18.93
2016-08-23T00:24:51.688Z,18.93
2016-08-23T00:26:04.006Z,19
2016-08-23T00:27:15.550Z,18.97
2016-08-23T00:28:27.825Z,18.96
2016-08-23T00:29:40.092Z,18.99
2016-08-23T00:30:51.640Z,18.99
2016-08-23T00:32:03.189Z,18.96
2016-08-23T00:33:15.476Z,18.94
2016-08-23T00:34:26.332Z,18.9
2016-08-23T00:35:38.600Z,18.91
2016-08-23T00:36:50.876Z,18.89
2016-08-23T00:38:03.143Z,18.89
2016-08-23T00:39:14.695Z,18.82
2016-08-23T00:40:26.261Z,18.9
2016-08-23T00:41:37.112Z,18.91
2016-08-23T00:42:49.371Z,18.87
2016-08-23T00:44:00.950Z,18.87
2016-08-23T00:45:13.227Z,18.94
2016-08-23T00:46:25.480Z,18.87
2016-08-23T00:47:37.037Z,18.89
2016-08-23T00:48:49.299Z,18.86
2016-08-23T00:50:00.860Z,18.86
2016-08-23T00:51:13.125Z,18.74
2016-08-23T00:52:25.394Z,18.81
2016-08-23T00:53:37.650Z,18.87
2016-08-23T00:54:49.913Z,18.86
2016-08-23T00:56:01.483Z,18.87
2016-08-23T00:57:13.741Z,18.86
2016-08-23T00:58:25.302Z,18.82
2016-08-23T00:59:37.562Z,18.84
2016-08-23T01:00:49.833Z,18.87
2016-08-23T01:02:02.107Z,18.89
2016-08-23T01:03:13.669Z,18.89
2016-08-23T01:04:25.235Z,18.89
2016-08-23T01:05:37.501Z,18.86
2016-08-23T01:06:49.760Z,18.84
2016-08-23T01:08:01.329Z,18.87
2016-08-23T01:09:12.898Z,18.82
2016-08-23T01:10:24.451Z,18.91
2016-08-23T01:11:36.733Z,18.86
2016-08-23T01:12:48.997Z,18.87
2016-08-23T01:14:01.276Z,18.84
2016-08-23T01:15:13.532Z,18.79
2016-08-23T01:16:25.093Z,18.79
2016-08-23T01:17:37.372Z,18.69
2016-08-23T01:18:49.626Z,18.76
2016-08-23T01:20:01.888Z,18.71
2016-08-23T01:21:14.142Z,18.65
2016-08-23T01:22:26.404Z,18.61
2016-08-23T01:23:37.965Z,18.74
2016-08-23T01:24:49.527Z,18.63
2016-08-23T01:26:01.793Z,18.65
2016-08-23T01:27:13.359Z,18.57
2016-08-23T01:28:24.946Z,18.63
2016-08-23T01:29:37.195Z,18.59
2016-08-23T01:30:48.750Z,18.59
2016-08-23T01:32:01.024Z,18.65
2016-08-23T01:33:12.584Z,18.63
2016-08-23T01:34:24.835Z,18.65
2016-08-23T01:35:37.122Z,18.61
2016-08-23T01:36:49.424Z,18.63
2016-08-23T01:38:01.700Z,18.54
2016-08-23T01:39:13.951Z,18.6
2016-08-23T01:40:26.205Z,18.59
2016-08-23T01:41:38.489Z,18.56
2016-08-23T01:42:50.751Z,18.6
2016-08-23T01:44:03.021Z,18.56
2016-08-23T01:45:15.293Z,18.54
2016-08-23T01:46:26.149Z,18.49
2016-08-23T01:47:38.405Z,18.54
2016-08-23T01:48:49.971Z,18.5
2016-08-23T01:50:02.237Z,18.45
2016-08-23T01:51:13.800Z,18.47
2016-08-23T01:52:26.058Z,18.49
2016-08-23T01:53:38.318Z,18.42
2016-08-23T01:54:50.587Z,18.49
2016-08-23T01:56:02.164Z,18.47
2016-08-23T01:57:14.417Z,18.41
2016-08-23T01:58:26.672Z,18.42
2016-08-23T01:59:38.950Z,18.47
2016-08-23T02:00:51.211Z,18.47
2016-08-23T02:02:02.762Z,18.5
2016-08-23T02:03:15.021Z,18.5
2016-08-23T02:04:27.280Z,18.44
2016-08-23T02:05:38.134Z,18.44
2016-08-23T02:06:49.684Z,18.45
2016-08-23T02:08:01.952Z,18.42
2016-08-23T02:09:14.211Z,18.39
2016-08-23T02:10:25.784Z,18.41
2016-08-23T02:11:37.359Z,18.41
2016-08-23T02:12:49.611Z,18.42
2016-08-23T02:14:01.168Z,18.41
2016-08-23T02:15:13.451Z,18.45
2016-08-23T02:16:25.008Z,18.47
2016-08-23T02:17:37.264Z,18.45
2016-08-23T02:18:49.530Z,18.49
2016-08-23T02:20:01.821Z,18.54
2016-08-23T02:21:14.109Z,18.49
2016-08-23T02:22:25.666Z,18.42
2016-08-23T02:23:37.933Z,18.42
2016-08-23T02:24:50.192Z,18.44
2016-08-23T02:26:02.451Z,18.47
2016-08-23T02:27:14.707Z,18.47
2016-08-23T02:28:26.279Z,18.44
2016-08-23T02:29:38.562Z,18.5
2016-08-23T02:30:50.826Z,18.42
2016-08-23T02:32:03.091Z,18.45
2016-08-23T02:33:15.402Z,18.57
2016-08-23T02:34:27.655Z,18.5
2016-08-23T02:35:39.223Z,18.45
2016-08-23T02:36:51.507Z,18.51
2016-08-23T02:38:03.768Z,18.59
2016-08-23T02:39:16.026Z,18.47
2016-08-23T02:40:27.593Z,18.47
2016-08-23T02:41:39.172Z,18.49
2016-08-23T02:42:51.426Z,18.5
2016-08-23T02:44:03.688Z,18.47
2016-08-23T02:45:14.550Z,18.47
2016-08-23T02:46:26.809Z,18.41
2016-08-23T02:47:38.383Z,18.44
2016-08-23T02:48:50.640Z,18.44
2016-08-23T02:50:02.917Z,18.47
2016-08-23T02:51:14.487Z,18.51
2016-08-23T02:52:26.733Z,18.47
2016-08-23T02:53:38.293Z,18.45
2016-08-23T02:54:50.565Z,18.47
2016-08-23T02:56:02.826Z,18.53
2016-08-23T02:57:15.085Z,18.42
2016-08-23T02:58:26.646Z,18.49
2016-08-23T02:59:38.901Z,18.38
2016-08-23T03:00:50.459Z,18.49
2016-08-23T03:02:02.728Z,18.36
2016-08-23T03:03:14.295Z,18.27
2016-08-23T03:04:25.850Z,18.32
2016-08-23T03:05:38.110Z,18.36
2016-08-23T03:06:49.676Z,18.34
2016-08-23T03:08:01.928Z,18.36
2016-08-23T03:09:14.206Z,18.41
2016-08-23T03:10:26.476Z,18.31
2016-08-23T03:11:38.739Z,18.29
2016-08-23T03:12:50.296Z,18.32
2016-08-23T03:14:02.558Z,18.34
2016-08-23T03:15:14.128Z,18.32
2016-08-23T03:16:24.974Z,18.34
2016-08-23T03:17:37.233Z,18.17
2016-08-23T03:18:49.482Z,18.2
2016-08-23T03:20:01.741Z,18.17
2016-08-23T03:21:12.650Z,18.19
2016-08-23T03:22:24.910Z,18.23
2016-08-23T03:23:37.178Z,18.31
2016-08-23T03:24:48.725Z,18.29
2016-08-23T03:26:00.981Z,18.26
2016-08-23T03:27:12.549Z,18.24
2016-08-23T03:28:24.835Z,18.23
2016-08-23T03:29:37.099Z,18.24
2016-08-23T03:30:49.358Z,18.2
2016-08-23T03:32:00.904Z,18.24
2016-08-23T03:33:12.459Z,18.23
2016-08-23T03:34:24.727Z,18.34
2016-08-23T03:35:36.985Z,18.29
2016-08-23T03:36:49.296Z,18.35
2016-08-23T03:38:01.556Z,18.34
2016-08-23T03:39:13.820Z,18.29
2016-08-23T03:40:26.077Z,18.34
2016-08-23T03:41:37.639Z,18.2
2016-08-23T03:42:49.196Z,18.26
2016-08-23T03:44:01.447Z,18.32
2016-08-23T03:45:13.737Z,18.31
2016-08-23T03:46:25.989Z,18.31
2016-08-23T03:47:38.258Z,18.24
2016-08-23T03:48:49.823Z,18.31
2016-08-23T03:50:02.073Z,18.29
2016-08-23T03:51:14.335Z,18.24
2016-08-23T03:52:26.591Z,18.31
2016-08-23T03:53:37.442Z,18.27
2016-08-23T03:54:49.017Z,18.31
2016-08-23T03:56:00.571Z,18.24
2016-08-23T03:57:12.847Z,18.32
2016-08-23T03:58:25.109Z,18.24
2016-08-23T03:59:36.670Z,18.16
2016-08-23T04:00:48.935Z,18.2
2016-08-23T04:02:00.494Z,18.17
2016-08-23T04:03:11.344Z,18.16
2016-08-23T04:04:22.907Z,18.17
2016-08-23T04:05:35.179Z,18.19
2016-08-23T04:06:47.451Z,18.13
2016-08-23T04:07:59.717Z,18.16
2016-08-23T04:09:11.981Z,18.2
2016-08-23T04:10:22.833Z,18.21
2016-08-23T04:11:35.098Z,18.27
2016-08-23T04:12:46.666Z,18.34
2016-08-23T04:13:58.931Z,18.35
2016-08-23T04:15:11.197Z,18.31
2016-08-23T04:16:23.470Z,18.26
2016-08-23T04:17:35.722Z,18.45
2016-08-23T04:18:47.975Z,18.38
2016-08-23T04:19:58.825Z,18.39
2016-08-23T04:21:11.092Z,18.47
2016-08-23T04:22:23.347Z,18.59
2016-08-23T04:23:34.900Z,18.75
2016-08-23T04:24:47.163Z,18.89
2016-08-23T04:25:58.735Z,18.81
2016-08-23T04:27:10.995Z,18.81
2016-08-23T04:28:21.852Z,18.81
2016-08-23T04:29:34.103Z,18.76
2016-08-23T04:30:45.666Z,18.82
2016-08-23T04:31:57.920Z,19.07
2016-08-23T04:33:10.195Z,19.68
2016-08-23T04:34:22.457Z,20.38
2016-08-23T04:35:34.713Z,20.83
2016-08-23T04:36:47.024Z,21.16
2016-08-23T04:37:58.587Z,21.45
2016-08-23T04:39:10.853Z,21.7
2016-08-23T04:40:21.725Z,21.92
2016-08-23T04:41:33.978Z,22.29
2016-08-23T04:42:45.525Z,22.54
2016-08-23T04:43:57.801Z,22.75
2016-08-23T04:45:09.371Z,23.01
2016-08-23T04:46:21.634Z,23.15
2016-08-23T04:47:33.184Z,23.35
2016-08-23T04:48:45.437Z,23.6
2016-08-23T04:49:57.690Z,23.71
2016-08-23T04:51:09.244Z,23.9
2016-08-23T04:52:21.514Z,24.09
2016-08-23T04:53:33.788Z,24.27
2016-08-23T04:54:45.351Z,24.46
2016-08-23T04:55:57.603Z,24.77
2016-08-23T04:57:09.874Z,24.77
2016-08-23T04:58:22.146Z,24.9
2016-08-23T04:59:33.702Z,25.02
2016-08-23T05:00:45.964Z,25.12
2016-08-23T05:01:58.243Z,25.15
2016-08-23T05:03:10.489Z,25.27
2016-08-23T05:04:22.750Z,25.3
2016-08-23T05:05:35.017Z,25.38
2016-08-23T05:06:47.278Z,25.34
2016-08-23T05:07:58.836Z,25.54
2016-08-23T05:09:11.116Z,25.57
2016-08-23T05:10:23.383Z,25.59
2016-08-23T05:11:34.946Z,25.59
2016-08-23T05:12:47.204Z,25.67
2016-08-23T05:13:59.463Z,25.64
2016-08-23T05:15:11.727Z,25.71
2016-08-23T05:16:24.007Z,25.67
2016-08-23T05:17:36.273Z,25.59
2016-08-23T05:18:48.540Z,25.7
2016-08-23T05:20:00.817Z,25.79
2016-08-23T05:21:13.078Z,25.75
2016-08-23T05:22:25.332Z,25.81
2016-08-23T05:23:36.906Z,25.91
2016-08-23T05:24:49.165Z,25.84
2016-08-23T05:26:01.428Z,25.91
2016-08-23T05:27:13.688Z,26.01
2016-08-23T05:28:25.265Z,26
2016-08-23T05:29:37.561Z,26.11
2016-08-23T05:30:49.824Z,26.22
2016-08-23T05:32:02.107Z,26.22
2016-08-23T05:33:14.369Z,26.38
2016-08-23T05:34:26.640Z,26.31
2016-08-23T05:35:38.919Z,26.42
2016-08-23T05:36:51.242Z,26.39
2016-08-23T05:38:03.505Z,26.45
2016-08-23T05:39:15.786Z,26.45
2016-08-23T05:40:28.077Z,26.47
2016-08-23T05:41:39.654Z,26.32
2016-08-23T05:42:50.511Z,26.31
2016-08-23T05:44:02.078Z,25.7
2016-08-23T05:45:14.351Z,25.02
2016-08-23T05:46:25.906Z,24.55
2016-08-23T05:47:37.478Z,24.17
2016-08-23T05:48:49.739Z,24.27
2016-08-23T05:50:00.603Z,24.74
2016-08-23T05:51:12.896Z,24.7
2016-08-23T05:52:24.456Z,24.29
2016-08-23T05:53:36.717Z,23.96
2016-08-23T05:54:48.279Z,23.63
2016-08-23T05:56:00.545Z,23.57
2016-08-23T05:57:12.102Z,23.45
2016-08-23T05:58:24.374Z,23.52
2016-08-23T05:59:36.627Z,23.79
2016-08-23T06:00:48.892Z,24.09
2016-08-23T06:02:01.160Z,24.07
2016-08-23T06:03:13.411Z,23.82
2016-08-23T06:04:24.275Z,23.62
2016-08-23T06:05:36.541Z,23.5
2016-08-23T06:06:47.392Z,23.45
2016-08-23T06:07:59.648Z,23.5
2016-08-23T06:09:11.929Z,23.63
2016-08-23T06:10:24.200Z,23.75
2016-08-23T06:11:35.759Z,23.62
2016-08-23T06:12:47.325Z,23.47
2016-08-23T06:13:59.587Z,23.38
2016-08-23T06:15:11.149Z,23.22
2016-08-23T06:16:23.410Z,23.16
2016-08-23T06:17:35.672Z,23.09
2016-08-23T06:18:46.544Z,22.99
2016-08-23T06:19:58.106Z,22.89
2016-08-23T06:21:10.373Z,22.94
2016-08-23T06:22:21.949Z,22.88
2016-08-23T06:23:33.511Z,22.92
2016-08-23T06:24:45.779Z,22.88
2016-08-23T06:25:57.369Z,22.86
2016-08-23T06:27:09.652Z,22.79
2016-08-23T06:28:21.937Z,22.81
2016-08-23T06:29:33.487Z,22.84
2016-08-23T06:30:43.646Z,22.73
2016-08-23T06:31:55.894Z,22.71
2016-08-23T06:33:07.450Z,22.66
2016-08-23T06:34:19.007Z,22.7
2016-08-23T06:35:30.555Z,22.66
2016-08-23T06:36:42.821Z,22.75
2016-08-23T06:37:55.083Z,22.63
2016-08-23T06:39:07.354Z,22.67
2016-08-23T06:40:19.635Z,22.73
2016-08-23T06:41:31.198Z,22.71
2016-08-23T06:42:43.469Z,22.7
2016-08-23T06:43:55.015Z,22.79
2016-08-23T06:45:06.587Z,22.84
2016-08-23T06:46:18.850Z,22.86
2016-08-23T06:47:30.421Z,23.03
2016-08-23T06:48:42.691Z,22.97
2016-08-23T06:49:54.963Z,22.92
2016-08-23T06:51:06.512Z,23.03
2016-08-23T06:52:18.778Z,23.07
2016-08-23T06:53:31.048Z,23.09
2016-08-23T06:54:43.317Z,23.09
2016-08-23T06:55:54.176Z,23.04
2016-08-23T06:57:06.461Z,23.14
2016-08-23T06:58:18.023Z,23.15
2016-08-23T06:59:30.298Z,23.18
2016-08-23T07:00:42.568Z,23.26
2016-08-23T07:01:54.143Z,23.25
2016-08-23T07:03:06.424Z,23.41
2016-08-23T07:04:18.721Z,23.42
2016-08-23T07:05:31.002Z,23.44
2016-08-23T07:06:43.281Z,23.53
2016-08-23T07:07:55.561Z,23.57
2016-08-23T07:09:07.836Z,23.59
2016-08-23T07:10:19.390Z,23.59
2016-08-23T07:11:31.664Z,23.67
2016-08-23T07:12:43.936Z,23.71
2016-08-23T07:13:56.184Z,23.78
2016-08-23T07:15:07.754Z,23.85
2016-08-23T07:16:20.039Z,23.87
2016-08-23T07:17:31.629Z,23.93
2016-08-23T07:18:43.182Z,23.97
2016-08-23T07:19:55.455Z,24
2016-08-23T07:21:05.615Z,23.94
2016-08-23T07:22:17.181Z,24.02
2016-08-23T07:23:28.765Z,23.96
2016-08-23T07:24:40.328Z,24
2016-08-23T07:25:51.905Z,24.02
2016-08-23T07:27:04.175Z,24
2016-08-23T07:28:14.331Z,24.04
2016-08-23T07:29:26.624Z,23.99
2016-08-23T07:30:38.924Z,24.07
2016-08-23T07:31:51.198Z,24.17
2016-08-23T07:33:03.483Z,24.18
2016-08-23T07:34:15.751Z,24.14
2016-08-23T07:35:28.047Z,24.22
2016-08-23T07:36:39.598Z,24.22
2016-08-23T07:37:51.876Z,24.33
2016-08-23T07:39:02.745Z,24.45
2016-08-23T07:40:15.016Z,24.49
2016-08-23T07:41:27.275Z,24.69
2016-08-23T07:42:38.123Z,24.75
2016-08-23T07:43:49.685Z,24.67
2016-08-23T07:45:01.949Z,24.8
2016-08-23T07:46:14.217Z,24.83
2016-08-23T07:47:25.814Z,24.78
2016-08-23T07:48:37.376Z,24.86
2016-08-23T07:49:49.658Z,24.85
2016-08-23T07:51:01.920Z,24.87
2016-08-23T07:52:14.189Z,25.01
2016-08-23T07:53:25.752Z,25.08
2016-08-23T07:54:37.330Z,25.14
2016-08-23T07:55:48.894Z,25.14
2016-08-23T07:57:01.169Z,25.26
2016-08-23T07:58:13.427Z,25.3
2016-08-23T07:59:25.013Z,25.3
2016-08-23T08:00:36.819Z,25.33
2016-08-23T08:01:47.695Z,25.3
2016-08-23T08:02:59.948Z,25.39
2016-08-23T08:04:11.530Z,25.41
2016-08-23T08:05:23.813Z,25.45
2016-08-23T08:06:36.078Z,25.49
2016-08-23T08:07:48.355Z,25.51
2016-08-23T08:09:00.621Z,25.57
2016-08-23T08:10:12.890Z,25.47
2016-08-23T08:11:25.254Z,25.56
2016-08-23T08:12:36.115Z,25.52
2016-08-23T08:13:47.688Z,25.63
2016-08-23T08:14:59.989Z,25.63
2016-08-23T08:16:11.558Z,25.57
2016-08-23T08:17:23.842Z,25.63
2016-08-23T08:18:36.131Z,25.74
2016-08-23T08:19:48.394Z,25.93
2016-08-23T08:21:00.680Z,25.89
2016-08-23T08:22:12.326Z,25.96
2016-08-23T08:23:24.623Z,25.99
2016-08-23T08:24:36.924Z,26.03
2016-08-23T08:25:49.198Z,26.16
2016-08-23T08:27:00.768Z,26.17
2016-08-23T08:28:13.046Z,26.23
2016-08-23T08:29:24.616Z,26.31
2016-08-23T08:30:36.179Z,26.27
2016-08-23T08:31:48.474Z,26.34
2016-08-23T08:33:00.734Z,26.31
2016-08-23T08:34:12.308Z,26.3
2016-08-23T08:35:24.576Z,26.32
2016-08-23T08:36:36.855Z,26.37
2016-08-23T08:37:48.418Z,26.35
2016-08-23T08:39:00.696Z,26.45
2016-08-23T08:40:12.273Z,26.42
2016-08-23T08:41:24.564Z,26.44
2016-08-23T08:42:36.128Z,26.45
2016-08-23T08:43:48.416Z,26.45
2016-08-23T08:45:00.691Z,26.44
2016-08-23T08:46:12.247Z,26.52
2016-08-23T08:47:23.810Z,26.63
2016-08-23T08:48:34.681Z,26.64
2016-08-23T08:49:46.245Z,26.61
2016-08-23T08:50:57.808Z,26.59
2016-08-23T08:52:10.086Z,26.64
2016-08-23T08:53:20.940Z,26.74
2016-08-23T08:54:33.198Z,26.79
2016-08-23T08:55:45.453Z,26.79
2016-08-23T08:56:57.727Z,26.78
2016-08-23T08:58:09.983Z,26.79
2016-08-23T08:59:21.547Z,26.81
2016-08-23T09:00:33.814Z,26.93
2016-08-23T09:01:45.376Z,26.94
2016-08-23T09:02:56.943Z,26.91
2016-08-23T09:04:09.208Z,26.96
2016-08-23T09:05:21.483Z,26.96
2016-08-23T09:06:33.787Z,26.96
2016-08-23T09:07:46.069Z,27.01
2016-08-23T09:08:57.636Z,26.91
2016-08-23T09:10:09.928Z,26.99
2016-08-23T09:11:22.191Z,26.91
2016-08-23T09:12:34.461Z,26.99
2016-08-23T09:13:46.758Z,27.06
2016-08-23T09:14:58.313Z,27.13
2016-08-23T09:16:09.876Z,27.21
2016-08-23T09:17:22.138Z,27.3
2016-08-23T09:18:34.430Z,27.41
2016-08-23T09:19:46.698Z,27.45
2016-08-23T09:20:58.970Z,27.45
2016-08-23T09:22:11.246Z,27.52
2016-08-23T09:23:22.803Z,27.51
2016-08-23T09:24:34.366Z,27.65
2016-08-23T09:25:45.943Z,27.68
2016-08-23T09:26:58.198Z,27.59
2016-08-23T09:28:10.466Z,27.49
2016-08-23T09:29:22.732Z,27.51
2016-08-23T09:30:35.006Z,27.48
2016-08-23T09:31:47.284Z,27.33
2016-08-23T09:32:59.577Z,27.42
2016-08-23T09:34:11.142Z,27.51
2016-08-23T09:35:23.422Z,27.52
2016-08-23T09:36:34.991Z,27.52
2016-08-23T09:37:47.278Z,27.62
2016-08-23T09:38:59.603Z,27.62
2016-08-23T09:40:12.089Z,27.68
2016-08-23T09:41:24.395Z,27.87
2016-08-23T09:42:36.699Z,27.84
2016-08-23T09:43:48.268Z,27.9
2016-08-23T09:45:00.559Z,27.94
2016-08-23T09:46:12.827Z,27.94
2016-08-23T09:47:24.408Z,27.99
2016-08-23T09:48:36.708Z,28.02
2016-08-23T09:49:48.991Z,28.03
2016-08-23T09:51:01.253Z,28.12
2016-08-23T09:52:13.528Z,28.14
2016-08-23T09:53:25.816Z,28.16
2016-08-23T09:54:38.087Z,28.14
2016-08-23T09:55:49.655Z,28.2
2016-08-23T09:57:01.932Z,28.21
2016-08-23T09:58:14.210Z,28.27
2016-08-23T09:59:26.481Z,28.23
2016-08-23T10:00:39.033Z,28.31
2016-08-23T10:01:51.323Z,28.28
2016-08-23T10:03:02.918Z,28.28
2016-08-23T10:04:15.184Z,28.43
2016-08-23T10:05:27.465Z,28.38
2016-08-23T10:06:39.731Z,28.51
2016-08-23T10:07:52.038Z,28.58
2016-08-23T10:09:04.307Z,28.61
2016-08-23T10:10:16.577Z,28.67
2016-08-23T10:11:28.849Z,28.82
2016-08-23T10:12:41.141Z,28.85
2016-08-23T10:13:52.725Z,28.95
2016-08-23T10:15:05.009Z,29.01
2016-08-23T10:16:17.325Z,29.13
2016-08-23T10:17:29.603Z,29.15
2016-08-23T10:18:41.889Z,29.23
2016-08-23T10:19:54.166Z,29.05
2016-08-23T10:21:06.444Z,29.11
2016-08-23T10:22:18.001Z,29.11
2016-08-23T10:23:30.288Z,29.08
2016-08-23T10:24:42.582Z,29.18
2016-08-23T10:25:54.865Z,29.24
2016-08-23T10:27:07.142Z,29.48
2016-08-23T10:28:19.415Z,29.39
2016-08-23T10:29:30.292Z,29.63
2016-08-23T10:30:42.569Z,29.7
2016-08-23T10:31:54.843Z,29.72
2016-08-23T10:33:06.417Z,29.72
2016-08-23T10:34:18.686Z,29.88
2016-08-23T10:35:30.272Z,29.95
2016-08-23T10:36:42.526Z,29.75
2016-08-23T10:37:54.843Z,29.58
2016-08-23T10:39:05.716Z,29.28
2016-08-23T10:40:17.306Z,29.35
2016-08-23T10:41:29.561Z,29.55
2016-08-23T10:42:41.849Z,29.17
2016-08-23T10:43:54.138Z,29.67
2016-08-23T10:45:06.409Z,29.76
2016-08-23T10:46:17.965Z,30.04
2016-08-23T10:47:30.232Z,30.03
2016-08-23T10:48:41.795Z,29.95
2016-08-23T10:49:53.362Z,29.75
2016-08-23T10:51:05.634Z,30
2016-08-23T10:52:17.908Z,30.06
2016-08-23T10:53:30.187Z,30.28
2016-08-23T10:54:41.755Z,30.34
2016-08-23T10:55:54.025Z,30.45
2016-08-23T10:57:06.313Z,30.18
2016-08-23T10:58:17.894Z,30.14
2016-08-23T10:59:30.180Z,29.88
2016-08-23T11:00:41.746Z,30.04
2016-08-23T11:01:54.014Z,29.75
2016-08-23T11:03:06.311Z,29.67
2016-08-23T11:04:18.579Z,30.16
2016-08-23T11:05:30.876Z,30.34
2016-08-23T11:06:43.146Z,30.16
2016-08-23T11:07:55.603Z,29.89
2016-08-23T11:09:07.178Z,29.73
2016-08-23T11:10:19.452Z,30.06
2016-08-23T11:11:31.718Z,30.14
2016-08-23T11:12:43.285Z,30.02
2016-08-23T11:13:55.551Z,30.14
2016-08-23T11:15:07.879Z,30.51
2016-08-23T11:16:20.142Z,30.66
2016-08-23T11:17:32.414Z,30.94
2016-08-23T11:18:44.708Z,31.15
2016-08-23T11:19:56.996Z,31.33
2016-08-23T11:21:07.867Z,31.43
2016-08-23T11:22:19.444Z,31.62
2016-08-23T11:23:31.702Z,31.81
2016-08-23T11:24:43.979Z,32
2016-08-23T11:25:56.282Z,31.9
2016-08-23T11:27:08.597Z,31.7
2016-08-23T11:28:20.869Z,31.6
2016-08-23T11:29:33.139Z,31.41
2016-08-23T11:30:45.407Z,31.81
2016-08-23T11:31:56.983Z,31.81
2016-08-23T11:33:08.571Z,31.44
2016-08-23T11:34:20.149Z,31.18
2016-08-23T11:35:32.420Z,30.77
2016-08-23T11:36:43.993Z,31.1
2016-08-23T11:37:56.320Z,31.44
2016-08-23T11:39:08.606Z,31.49
2016-08-23T11:40:20.888Z,31.7
2016-08-23T11:41:33.174Z,31.81
2016-08-23T11:42:45.471Z,31.71
2016-08-23T11:43:56.341Z,31.22
2016-08-23T11:45:08.633Z,31.71
2016-08-23T11:46:20.960Z,31.93
2016-08-23T11:47:33.248Z,31.95
2016-08-23T11:48:45.526Z,31.97
2016-08-23T11:49:57.105Z,31.9
2016-08-23T11:51:08.685Z,31.82
2016-08-23T11:52:20.957Z,31.75
2016-08-23T11:53:33.222Z,31.75
2016-08-23T11:54:45.497Z,31.63
2016-08-23T11:55:57.792Z,31.72
2016-08-23T11:57:10.075Z,31.34
2016-08-23T11:58:22.368Z,30.81
2016-08-23T11:59:34.664Z,30.49
2016-08-23T12:00:46.938Z,30.71
2016-08-23T12:01:59.208Z,30.64
2016-08-23T12:03:10.785Z,30.25
2016-08-23T12:04:23.073Z,29.97
2016-08-23T12:05:35.374Z,30.03
2016-08-23T12:06:47.651Z,30.34
2016-08-23T12:07:59.222Z,30.63
2016-08-23T12:09:11.502Z,30.6
2016-08-23T12:10:23.779Z,30.64
2016-08-23T12:11:36.066Z,30.89
2016-08-23T12:12:48.335Z,31.04
2016-08-23T12:14:00.628Z,30.89
2016-08-23T12:15:12.190Z,30.94
2016-08-23T12:16:24.467Z,31.15
2016-08-23T12:17:36.748Z,31.21
2016-08-23T12:18:48.318Z,30.81
2016-08-23T12:19:59.898Z,30.28
2016-08-23T12:21:12.179Z,30.75
2016-08-23T12:22:24.460Z,30.57
2016-08-23T12:23:36.728Z,30.66
2016-08-23T12:24:48.328Z,30.77
2016-08-23T12:26:00.610Z,30.73
2016-08-23T12:27:11.474Z,30.48
2016-08-23T12:28:22.381Z,30.02
2016-08-23T12:29:33.261Z,30.09
2016-08-23T12:30:44.837Z,30.37
2016-08-23T12:31:57.112Z,30.52
2016-08-23T12:33:09.394Z,30.99
2016-08-23T12:34:20.277Z,31.19
2016-08-23T12:35:31.158Z,31.38
2016-08-23T12:36:43.441Z,31.74
2016-08-23T12:37:55.065Z,31.98
2016-08-23T12:39:06.640Z,31.97
2016-08-23T12:40:18.211Z,31.74
2016-08-23T12:41:29.799Z,31.4
2016-08-23T12:42:42.076Z,31.23
2016-08-23T12:43:54.378Z,30.99
2016-08-23T12:45:06.637Z,31.31
2016-08-23T12:46:18.195Z,31.03
2016-08-23T12:47:29.759Z,30.69
2016-08-23T12:48:40.644Z,31.06
2016-08-23T12:49:52.225Z,31.41
2016-08-23T12:51:03.783Z,31.21
2016-08-23T12:52:16.049Z,31.22
2016-08-23T12:53:26.912Z,30.82
2016-08-23T12:54:38.485Z,30.91
2016-08-23T12:55:50.070Z,30.71
2016-08-23T12:57:02.346Z,30.71
2016-08-23T12:58:13.928Z,30.94
2016-08-23T12:59:26.191Z,31.12
2016-08-23T13:00:37.772Z,31.33
2016-08-23T13:01:50.059Z,31.41
2016-08-23T13:03:02.333Z,31.41
2016-08-23T13:04:13.910Z,30.88
2016-08-23T13:05:26.194Z,30.66
2016-08-23T13:06:37.774Z,30.32
2016-08-23T13:07:49.352Z,30.16
2016-08-23T13:09:01.635Z,30.39
2016-08-23T13:10:13.207Z,30.69
2016-08-23T13:11:24.782Z,31
2016-08-23T13:12:37.061Z,30.75
2016-08-23T13:13:49.334Z,30.75
2016-08-23T13:15:00.902Z,30.91
2016-08-23T13:16:11.759Z,31.19
2016-08-23T13:17:23.341Z,30.99
2016-08-23T13:18:34.232Z,30.62
2016-08-23T13:19:46.519Z,30.73
2016-08-23T13:20:57.416Z,30.66
2016-08-23T13:22:07.590Z,30.81
2016-08-23T13:23:19.175Z,31.08
2016-08-23T13:24:30.044Z,31.22
2016-08-23T13:25:40.910Z,31.21
2016-08-23T13:26:51.780Z,31.36
2016-08-23T13:28:04.067Z,31.43
2016-08-23T13:29:16.342Z,31.52
2016-08-23T13:30:28.618Z,31.5
2016-08-23T13:31:40.882Z,31.62
2016-08-23T13:32:52.488Z,31.71
2016-08-23T13:34:04.103Z,31.77
2016-08-23T13:35:16.402Z,31.77
2016-08-23T13:36:28.671Z,31.81
2016-08-23T13:37:40.945Z,31.95
2016-08-23T13:38:51.105Z,31.94
2016-08-23T13:40:03.382Z,31.98
2016-08-23T13:41:14.965Z,31.98
2016-08-23T13:42:25.857Z,31.97
2016-08-23T13:43:38.129Z,31.98
2016-08-23T13:44:48.983Z,32
2016-08-23T13:46:01.284Z,32
2016-08-23T13:47:13.561Z,32.09
2016-08-23T13:48:25.863Z,32.08
2016-08-23T13:49:36.753Z,32.19
2016-08-23T13:50:48.337Z,32.2
2016-08-23T13:51:59.209Z,32.37
2016-08-23T13:53:10.805Z,32.39
2016-08-23T13:54:22.458Z,32.35
2016-08-23T13:55:34.050Z,32.42
2016-08-23T13:56:45.622Z,32.38
2016-08-23T13:57:56.507Z,32.43
2016-08-23T13:59:08.789Z,32.47
2016-08-23T14:00:20.371Z,32.5
2016-08-23T14:01:30.558Z,32.16
2016-08-23T14:02:41.442Z,32.3
2016-08-23T14:03:53.729Z,32.27
2016-08-23T14:05:05.298Z,32.15
2016-08-23T14:06:16.884Z,31.95
2016-08-23T14:07:29.146Z,31.59
2016-08-23T14:08:40.722Z,31.6
2016-08-23T14:09:52.294Z,31.77
2016-08-23T14:11:03.172Z,31.91
2016-08-23T14:12:14.759Z,31.94
2016-08-23T14:13:27.054Z,31.98
2016-08-23T14:14:39.322Z,32.15
2016-08-23T14:15:51.626Z,32.12
2016-08-23T14:17:03.200Z,32.23
2016-08-23T14:18:14.071Z,32.1
2016-08-23T14:19:24.249Z,32.16
2016-08-23T14:20:36.579Z,32.1
2016-08-23T18:14:18.031Z,26.59
2016-08-23T18:15:30.304Z,26.53
2016-08-23T18:16:42.925Z,26.42
2016-08-23T18:17:55.871Z,26.42
2016-08-23T18:19:06.785Z,26.41
2016-08-23T18:20:18.387Z,26.41
2016-08-23T18:21:30.670Z,26.32
2016-08-23T18:22:42.234Z,26.39
2016-08-23T18:23:55.039Z,26.27
2016-08-23T18:25:08.365Z,26.24
2016-08-23T18:26:19.726Z,26.27
2016-08-23T18:27:31.320Z,26.23
2016-08-23T18:28:42.893Z,26.19
2016-08-23T18:29:54.474Z,26.15
2016-08-23T18:31:05.351Z,26.12
2016-08-23T18:32:17.651Z,26.09
2016-08-23T18:33:29.946Z,26
2016-08-23T18:34:41.541Z,26.07
2016-08-23T18:35:53.837Z,26
2016-08-23T18:37:04.734Z,26.01
2016-08-23T18:38:15.611Z,25.86
2016-08-23T18:39:27.945Z,25.93
2016-08-23T18:40:40.240Z,25.81
2016-08-23T18:41:51.810Z,25.82
2016-08-23T18:43:02.690Z,25.78
2016-08-23T18:44:14.286Z,25.86
2016-08-23T18:45:26.593Z,25.75
2016-08-23T18:46:36.791Z,25.69
2016-08-23T18:47:47.696Z,25.7
2016-08-23T18:48:59.985Z,25.7
2016-08-23T18:50:12.323Z,25.74
2016-08-23T18:51:24.616Z,25.62
2016-08-23T18:52:36.960Z,25.63
2016-08-23T18:53:48.616Z,25.7
2016-08-23T18:55:00.958Z,25.66
2016-08-23T18:56:12.559Z,25.64
2016-08-23T18:57:24.937Z,25.63
2016-08-23T18:58:37.305Z,25.63
2016-08-23T18:59:50.101Z,25.56
2016-08-23T19:01:06.002Z,25.6
2016-08-23T19:02:22.012Z,25.62
2016-08-23T19:03:32.899Z,25.66
2016-08-23T19:04:44.615Z,25.6
2016-08-23T19:05:57.221Z,25.63
2016-08-23T19:07:08.915Z,25.6
2016-08-23T19:08:20.607Z,25.52
2016-08-23T19:09:32.975Z,25.56
2016-08-23T19:10:44.269Z,25.6
2016-08-23T19:11:56.326Z,25.56
2016-08-23T19:13:08.707Z,25.57
2016-08-23T19:14:21.739Z,25.6
2016-08-23T19:15:35.095Z,25.56
2016-08-23T19:16:46.718Z,25.56
2016-08-23T19:18:00.087Z,25.52
2016-08-23T19:19:12.737Z,25.48
2016-08-23T19:20:24.923Z,25.52
2016-08-23T19:21:37.563Z,25.51
2016-08-23T19:22:49.442Z,25.51